sensor_id;sensor_type;location;lat;lon;timestamp;temperature;humidity
42199;DHT22;27868;45.184;5.786;2022-11-23T00:01:43;8.20;92.90
42199;DHT22;27868;45.184;5.786;2022-11-23T00:04:27;8.10;92.80
42199;DHT22;27868;45.184;5.786;2022-11-23T00:07:12;8.10;92.70
42199;DHT22;27868;45.184;5.786;2022-11-23T00:09:57;8.10;92.60
42199;DHT22;27868;45.184;5.786;2022-11-23T00:12:41;8.10;92.50
42199;DHT22;27868;45.184;5.786;2022-11-23T00:15:26;8.10;92.50
42199;DHT22;27868;45.184;5.786;2022-11-23T00:18:10;8.00;92.40
42199;DHT22;27868;45.184;5.786;2022-11-23T00:20:55;8.00;92.70
42199;DHT22;27868;45.184;5.786;2022-11-23T00:23:39;8.00;92.40
42199;DHT22;27868;45.184;5.786;2022-11-23T00:26:24;8.00;92.40
42199;DHT22;27868;45.184;5.786;2022-11-23T00:29:09;7.90;92.40
42199;DHT22;27868;45.184;5.786;2022-11-23T00:31:54;7.90;92.40
42199;DHT22;27868;45.184;5.786;2022-11-23T00:34:38;7.90;92.40
42199;DHT22;27868;45.184;5.786;2022-11-23T00:37:23;7.80;92.50
42199;DHT22;27868;45.184;5.786;2022-11-23T00:40:08;7.80;92.50
42199;DHT22;27868;45.184;5.786;2022-11-23T00:42:53;7.80;92.40
42199;DHT22;27868;45.184;5.786;2022-11-23T00:45:37;7.80;92.50
42199;DHT22;27868;45.184;5.786;2022-11-23T00:48:22;7.70;92.30
42199;DHT22;27868;45.184;5.786;2022-11-23T00:51:08;7.70;92.40
42199;DHT22;27868;45.184;5.786;2022-11-23T00:53:53;7.70;92.50
42199;DHT22;27868;45.184;5.786;2022-11-23T00:56:37;7.70;92.50
42199;DHT22;27868;45.184;5.786;2022-11-23T00:59:22;7.70;92.40
42199;DHT22;27868;45.184;5.786;2022-11-23T01:02:07;7.60;92.20
42199;DHT22;27868;45.184;5.786;2022-11-23T01:04:51;7.60;92.20
42199;DHT22;27868;45.184;5.786;2022-11-23T01:07:36;7.60;92.20
42199;DHT22;27868;45.184;5.786;2022-11-23T01:10:21;7.60;92.20
42199;DHT22;27868;45.184;5.786;2022-11-23T01:13:05;7.60;92.20
42199;DHT22;27868;45.184;5.786;2022-11-23T01:15:50;7.50;92.20
42199;DHT22;27868;45.184;5.786;2022-11-23T01:18:34;7.60;92.30
42199;DHT22;27868;45.184;5.786;2022-11-23T01:21:19;7.50;92.20
42199;DHT22;27868;45.184;5.786;2022-11-23T01:24:06;7.50;92.20
42199;DHT22;27868;45.184;5.786;2022-11-23T01:26:54;7.50;92.40
42199;DHT22;27868;45.184;5.786;2022-11-23T01:29:39;7.40;92.40
42199;DHT22;27868;45.184;5.786;2022-11-23T01:32:24;7.40;92.50
42199;DHT22;27868;45.184;5.786;2022-11-23T01:35:08;7.40;92.70
42199;DHT22;27868;45.184;5.786;2022-11-23T01:37:53;7.40;92.70
42199;DHT22;27868;45.184;5.786;2022-11-23T01:40:41;7.40;92.90
42199;DHT22;27868;45.184;5.786;2022-11-23T01:43:26;7.40;93.10
42199;DHT22;27868;45.184;5.786;2022-11-23T01:46:11;7.40;93.10
42199;DHT22;27868;45.184;5.786;2022-11-23T01:49:05;7.40;93.10
42199;DHT22;27868;45.184;5.786;2022-11-23T01:51:54;7.40;93.20
42199;DHT22;27868;45.184;5.786;2022-11-23T01:54:53;7.40;93.30
42199;DHT22;27868;45.184;5.786;2022-11-23T01:57:42;7.40;93.30
42199;DHT22;27868;45.184;5.786;2022-11-23T02:00:28;7.40;93.30
42199;DHT22;27868;45.184;5.786;2022-11-23T02:03:12;7.40;93.30
42199;DHT22;27868;45.184;5.786;2022-11-23T02:06:00;7.40;93.40
42199;DHT22;27868;45.184;5.786;2022-11-23T02:08:47;7.40;93.40
42199;DHT22;27868;45.184;5.786;2022-11-23T02:11:32;7.40;93.50
42199;DHT22;27868;45.184;5.786;2022-11-23T02:14:17;7.40;93.50
42199;DHT22;27868;45.184;5.786;2022-11-23T02:17:02;7.40;93.50
42199;DHT22;27868;45.184;5.786;2022-11-23T02:20:07;7.40;93.60
42199;DHT22;27868;45.184;5.786;2022-11-23T02:25:57;7.40;93.70
42199;DHT22;27868;45.184;5.786;2022-11-23T02:28:46;7.50;93.80
42199;DHT22;27868;45.184;5.786;2022-11-23T02:31:32;7.40;93.80
42199;DHT22;27868;45.184;5.786;2022-11-23T02:34:17;7.50;93.90
42199;DHT22;27868;45.184;5.786;2022-11-23T02:37:02;7.50;93.90
42199;DHT22;27868;45.184;5.786;2022-11-23T02:39:51;7.50;93.80
42199;DHT22;27868;45.184;5.786;2022-11-23T02:42:37;7.40;93.70
42199;DHT22;27868;45.184;5.786;2022-11-23T02:48:10;7.40;93.80
42199;DHT22;27868;45.184;5.786;2022-11-23T02:50:54;7.40;93.70
42199;DHT22;27868;45.184;5.786;2022-11-23T02:53:39;7.40;93.70
42199;DHT22;27868;45.184;5.786;2022-11-23T02:56:24;7.30;93.60
42199;DHT22;27868;45.184;5.786;2022-11-23T02:59:08;7.40;93.60
42199;DHT22;27868;45.184;5.786;2022-11-23T03:01:53;7.40;93.50
42199;DHT22;27868;45.184;5.786;2022-11-23T03:04:37;7.70;93.50
42199;DHT22;27868;45.184;5.786;2022-11-23T03:07:21;7.30;93.40
42199;DHT22;27868;45.184;5.786;2022-11-23T03:10:07;7.30;93.40
42199;DHT22;27868;45.184;5.786;2022-11-23T03:12:54;7.30;93.30
42199;DHT22;27868;45.184;5.786;2022-11-23T03:15:38;7.30;93.20
42199;DHT22;27868;45.184;5.786;2022-11-23T03:18:24;7.30;93.20
42199;DHT22;27868;45.184;5.786;2022-11-23T03:21:09;7.30;93.20
42199;DHT22;27868;45.184;5.786;2022-11-23T03:23:55;7.30;93.30
42199;DHT22;27868;45.184;5.786;2022-11-23T03:26:40;7.20;93.30
42199;DHT22;27868;45.184;5.786;2022-11-23T03:29:24;7.20;93.40
42199;DHT22;27868;45.184;5.786;2022-11-23T03:32:10;7.30;93.30
42199;DHT22;27868;45.184;5.786;2022-11-23T03:34:55;7.20;93.30
42199;DHT22;27868;45.184;5.786;2022-11-23T03:37:39;7.20;93.40
42199;DHT22;27868;45.184;5.786;2022-11-23T03:40:24;7.20;93.40
42199;DHT22;27868;45.184;5.786;2022-11-23T03:43:09;7.20;93.30
42199;DHT22;27868;45.184;5.786;2022-11-23T03:45:53;7.10;93.10
42199;DHT22;27868;45.184;5.786;2022-11-23T03:48:38;7.10;93.20
42199;DHT22;27868;45.184;5.786;2022-11-23T03:51:22;7.10;93.20
42199;DHT22;27868;45.184;5.786;2022-11-23T03:54:07;7.10;93.30
42199;DHT22;27868;45.184;5.786;2022-11-23T03:56:51;7.10;93.30
42199;DHT22;27868;45.184;5.786;2022-11-23T03:59:36;7.10;93.40
42199;DHT22;27868;45.184;5.786;2022-11-23T04:02:20;7.10;93.40
42199;DHT22;27868;45.184;5.786;2022-11-23T04:05:05;7.10;93.50
42199;DHT22;27868;45.184;5.786;2022-11-23T04:07:49;7.10;93.50
42199;DHT22;27868;45.184;5.786;2022-11-23T04:10:34;7.10;93.60
42199;DHT22;27868;45.184;5.786;2022-11-23T04:13:18;7.10;93.70
42199;DHT22;27868;45.184;5.786;2022-11-23T04:16:03;7.10;93.80
42199;DHT22;27868;45.184;5.786;2022-11-23T04:18:50;7.10;93.90
42199;DHT22;27868;45.184;5.786;2022-11-23T04:21:36;7.10;93.80
42199;DHT22;27868;45.184;5.786;2022-11-23T04:24:20;7.10;93.70
42199;DHT22;27868;45.184;5.786;2022-11-23T04:27:05;7.00;93.60
42199;DHT22;27868;45.184;5.786;2022-11-23T04:29:49;7.10;93.70
42199;DHT22;27868;45.184;5.786;2022-11-23T04:32:34;7.10;93.70
42199;DHT22;27868;45.184;5.786;2022-11-23T04:35:18;7.00;93.60
42199;DHT22;27868;45.184;5.786;2022-11-23T04:38:04;7.00;93.70
42199;DHT22;27868;45.184;5.786;2022-11-23T04:40:48;7.00;93.80
42199;DHT22;27868;45.184;5.786;2022-11-23T04:43:32;7.00;93.90
42199;DHT22;27868;45.184;5.786;2022-11-23T04:46:17;7.00;93.70
42199;DHT22;27868;45.184;5.786;2022-11-23T04:49:02;7.00;93.70
42199;DHT22;27868;45.184;5.786;2022-11-23T04:51:46;7.00;93.60
42199;DHT22;27868;45.184;5.786;2022-11-23T04:54:30;7.00;93.70
42199;DHT22;27868;45.184;5.786;2022-11-23T04:57:15;7.00;93.70
42199;DHT22;27868;45.184;5.786;2022-11-23T05:00:00;7.00;93.80
42199;DHT22;27868;45.184;5.786;2022-11-23T05:02:45;7.00;93.80
42199;DHT22;27868;45.184;5.786;2022-11-23T05:05:29;7.00;93.80
42199;DHT22;27868;45.184;5.786;2022-11-23T05:08:14;7.00;93.80
42199;DHT22;27868;45.184;5.786;2022-11-23T05:10:59;7.00;93.90
42199;DHT22;27868;45.184;5.786;2022-11-23T05:13:43;7.00;93.90
42199;DHT22;27868;45.184;5.786;2022-11-23T05:16:28;7.00;93.80
42199;DHT22;27868;45.184;5.786;2022-11-23T05:19:12;7.00;93.80
42199;DHT22;27868;45.184;5.786;2022-11-23T05:21:57;7.00;93.80
42199;DHT22;27868;45.184;5.786;2022-11-23T05:24:41;6.90;93.80
42199;DHT22;27868;45.184;5.786;2022-11-23T05:27:26;7.00;93.90
42199;DHT22;27868;45.184;5.786;2022-11-23T05:30:11;6.90;94.00
42199;DHT22;27868;45.184;5.786;2022-11-23T05:33:01;7.00;94.00
42199;DHT22;27868;45.184;5.786;2022-11-23T05:35:46;7.00;94.00
42199;DHT22;27868;45.184;5.786;2022-11-23T05:38:30;7.00;94.10
42199;DHT22;27868;45.184;5.786;2022-11-23T05:41:15;7.00;94.10
42199;DHT22;27868;45.184;5.786;2022-11-23T05:43:59;7.00;94.10
42199;DHT22;27868;45.184;5.786;2022-11-23T05:46:44;7.00;94.10
42199;DHT22;27868;45.184;5.786;2022-11-23T05:49:29;7.00;94.20
42199;DHT22;27868;45.184;5.786;2022-11-23T05:52:14;7.00;94.50
42199;DHT22;27868;45.184;5.786;2022-11-23T05:54:59;7.00;94.20
42199;DHT22;27868;45.184;5.786;2022-11-23T05:57:43;7.00;94.10
42199;DHT22;27868;45.184;5.786;2022-11-23T06:00:28;7.00;94.20
42199;DHT22;27868;45.184;5.786;2022-11-23T06:03:12;6.90;94.20
42199;DHT22;27868;45.184;5.786;2022-11-23T06:05:57;7.00;94.30
42199;DHT22;27868;45.184;5.786;2022-11-23T06:08:42;7.00;94.30
42199;DHT22;27868;45.184;5.786;2022-11-23T06:11:26;7.00;94.40
42199;DHT22;27868;45.184;5.786;2022-11-23T06:14:10;7.00;94.40
42199;DHT22;27868;45.184;5.786;2022-11-23T06:16:55;7.00;94.50
42199;DHT22;27868;45.184;5.786;2022-11-23T06:19:39;7.00;94.60
42199;DHT22;27868;45.184;5.786;2022-11-23T06:22:24;7.00;94.60
42199;DHT22;27868;45.184;5.786;2022-11-23T06:25:08;7.00;94.70
42199;DHT22;27868;45.184;5.786;2022-11-23T06:27:57;7.00;95.00
42199;DHT22;27868;45.184;5.786;2022-11-23T06:30:42;7.00;94.60
42199;DHT22;27868;45.184;5.786;2022-11-23T06:33:26;6.90;94.60
42199;DHT22;27868;45.184;5.786;2022-11-23T06:36:11;7.00;94.50
42199;DHT22;27868;45.184;5.786;2022-11-23T06:38:56;7.00;94.50
42199;DHT22;27868;45.184;5.786;2022-11-23T06:41:40;7.00;94.50
42199;DHT22;27868;45.184;5.786;2022-11-23T06:44:24;7.00;94.90
42199;DHT22;27868;45.184;5.786;2022-11-23T06:47:09;7.00;94.60
42199;DHT22;27868;45.184;5.786;2022-11-23T06:49:53;6.90;94.60
42199;DHT22;27868;45.184;5.786;2022-11-23T06:52:38;7.00;94.60
42199;DHT22;27868;45.184;5.786;2022-11-23T06:55:23;7.00;94.60
42199;DHT22;27868;45.184;5.786;2022-11-23T06:58:08;7.00;94.60
42199;DHT22;27868;45.184;5.786;2022-11-23T07:00:53;7.00;94.50
42199;DHT22;27868;45.184;5.786;2022-11-23T07:03:38;7.00;94.60
42199;DHT22;27868;45.184;5.786;2022-11-23T07:06:23;7.00;94.60
42199;DHT22;27868;45.184;5.786;2022-11-23T07:09:07;7.00;94.70
42199;DHT22;27868;45.184;5.786;2022-11-23T07:11:52;7.00;94.70
42199;DHT22;27868;45.184;5.786;2022-11-23T07:14:37;7.00;94.80
42199;DHT22;27868;45.184;5.786;2022-11-23T07:17:21;7.00;94.80
42199;DHT22;27868;45.184;5.786;2022-11-23T07:20:08;7.10;94.90
42199;DHT22;27868;45.184;5.786;2022-11-23T07:23:00;7.10;94.80
42199;DHT22;27868;45.184;5.786;2022-11-23T07:25:45;7.10;94.80
42199;DHT22;27868;45.184;5.786;2022-11-23T07:28:30;7.10;94.90
42199;DHT22;27868;45.184;5.786;2022-11-23T07:31:15;7.10;95.00
42199;DHT22;27868;45.184;5.786;2022-11-23T07:33:59;7.20;95.20
42199;DHT22;27868;45.184;5.786;2022-11-23T07:36:44;7.10;95.10
42199;DHT22;27868;45.184;5.786;2022-11-23T07:39:28;7.10;95.00
42199;DHT22;27868;45.184;5.786;2022-11-23T07:42:13;7.20;95.10
42199;DHT22;27868;45.184;5.786;2022-11-23T07:44:57;7.20;95.10
42199;DHT22;27868;45.184;5.786;2022-11-23T07:47:42;7.20;95.10
42199;DHT22;27868;45.184;5.786;2022-11-23T07:50:27;7.20;95.20
42199;DHT22;27868;45.184;5.786;2022-11-23T07:53:12;7.20;95.20
42199;DHT22;27868;45.184;5.786;2022-11-23T07:55:57;7.20;95.20
42199;DHT22;27868;45.184;5.786;2022-11-23T07:58:44;7.20;95.20
42199;DHT22;27868;45.184;5.786;2022-11-23T08:01:29;7.30;95.30
42199;DHT22;27868;45.184;5.786;2022-11-23T08:04:15;7.30;95.40
42199;DHT22;27868;45.184;5.786;2022-11-23T08:06:59;7.30;95.40
42199;DHT22;27868;45.184;5.786;2022-11-23T08:09:45;7.30;95.40
42199;DHT22;27868;45.184;5.786;2022-11-23T08:12:30;7.30;95.50
42199;DHT22;27868;45.184;5.786;2022-11-23T08:15:15;7.40;95.60
42199;DHT22;27868;45.184;5.786;2022-11-23T08:18:01;7.40;95.60
42199;DHT22;27868;45.184;5.786;2022-11-23T08:20:46;7.40;95.70
42199;DHT22;27868;45.184;5.786;2022-11-23T08:23:31;7.40;95.70
42199;DHT22;27868;45.184;5.786;2022-11-23T08:26:15;7.40;95.70
42199;DHT22;27868;45.184;5.786;2022-11-23T08:29:00;7.40;95.70
42199;DHT22;27868;45.184;5.786;2022-11-23T08:31:45;7.40;95.70
42199;DHT22;27868;45.184;5.786;2022-11-23T08:34:29;7.50;95.70
42199;DHT22;27868;45.184;5.786;2022-11-23T08:37:14;7.50;95.70
42199;DHT22;27868;45.184;5.786;2022-11-23T08:39:58;7.50;95.60
42199;DHT22;27868;45.184;5.786;2022-11-23T08:42:42;7.80;95.70
42199;DHT22;27868;45.184;5.786;2022-11-23T08:45:27;7.60;95.60
42199;DHT22;27868;45.184;5.786;2022-11-23T08:48:12;7.60;95.70
42199;DHT22;27868;45.184;5.786;2022-11-23T08:50:58;7.60;95.70
42199;DHT22;27868;45.184;5.786;2022-11-23T08:53:43;7.60;95.80
42199;DHT22;27868;45.184;5.786;2022-11-23T08:56:28;7.60;95.80
42199;DHT22;27868;45.184;5.786;2022-11-23T08:59:13;7.70;95.90
42199;DHT22;27868;45.184;5.786;2022-11-23T09:01:57;7.70;95.80
42199;DHT22;27868;45.184;5.786;2022-11-23T09:04:41;7.70;95.80
42199;DHT22;27868;45.184;5.786;2022-11-23T09:07:26;7.70;95.80
42199;DHT22;27868;45.184;5.786;2022-11-23T09:10:11;7.70;95.80
42199;DHT22;27868;45.184;5.786;2022-11-23T09:12:57;7.80;95.80
42199;DHT22;27868;45.184;5.786;2022-11-23T09:15:41;7.80;95.80
42199;DHT22;27868;45.184;5.786;2022-11-23T09:18:26;7.80;95.80
42199;DHT22;27868;45.184;5.786;2022-11-23T09:21:11;7.80;95.90
42199;DHT22;27868;45.184;5.786;2022-11-23T09:23:56;7.90;95.90
42199;DHT22;27868;45.184;5.786;2022-11-23T09:26:40;7.90;95.90
42199;DHT22;27868;45.184;5.786;2022-11-23T09:29:25;7.90;95.80
42199;DHT22;27868;45.184;5.786;2022-11-23T09:32:10;7.90;95.70
42199;DHT22;27868;45.184;5.786;2022-11-23T09:34:55;7.90;95.70
42199;DHT22;27868;45.184;5.786;2022-11-23T09:37:39;8.00;95.80
42199;DHT22;27868;45.184;5.786;2022-11-23T09:40:29;8.00;95.90
42199;DHT22;27868;45.184;5.786;2022-11-23T09:43:39;8.10;95.80
42199;DHT22;27868;45.184;5.786;2022-11-23T09:47:03;8.10;95.80
42199;DHT22;27868;45.184;5.786;2022-11-23T09:52:55;8.10;95.80
42199;DHT22;27868;45.184;5.786;2022-11-23T09:55:48;8.10;95.90
42199;DHT22;27868;45.184;5.786;2022-11-23T09:58:38;8.10;95.90
42199;DHT22;27868;45.184;5.786;2022-11-23T10:01:24;8.10;95.90
42199;DHT22;27868;45.184;5.786;2022-11-23T10:04:20;8.20;95.70
42199;DHT22;27868;45.184;5.786;2022-11-23T10:22:59;8.30;95.50
42199;DHT22;27868;45.184;5.786;2022-11-23T10:25:47;8.30;95.40
42199;DHT22;27868;45.184;5.786;2022-11-23T10:28:33;8.40;95.90
42199;DHT22;27868;45.184;5.786;2022-11-23T10:31:21;8.40;95.70
42199;DHT22;27868;45.184;5.786;2022-11-23T10:34:13;8.40;95.70
42199;DHT22;27868;45.184;5.786;2022-11-23T10:36:59;8.40;95.70
42199;DHT22;27868;45.184;5.786;2022-11-23T10:39:44;8.50;95.70
42199;DHT22;27868;45.184;5.786;2022-11-23T10:42:37;8.50;95.60
42199;DHT22;27868;45.184;5.786;2022-11-23T10:45:25;8.50;95.70
42199;DHT22;27868;45.184;5.786;2022-11-23T10:48:10;8.50;95.70
42199;DHT22;27868;45.184;5.786;2022-11-23T10:51:14;8.60;95.80
42199;DHT22;27868;45.184;5.786;2022-11-23T10:54:05;8.50;95.70
42199;DHT22;27868;45.184;5.786;2022-11-23T10:57:00;8.60;95.70
42199;DHT22;27868;45.184;5.786;2022-11-23T11:00:17;8.60;95.70
42199;DHT22;27868;45.184;5.786;2022-11-23T11:03:02;8.70;95.80
42199;DHT22;27868;45.184;5.786;2022-11-23T11:06:04;8.70;95.70
42199;DHT22;27868;45.184;5.786;2022-11-23T11:09:05;8.70;95.70
42199;DHT22;27868;45.184;5.786;2022-11-23T11:12:01;8.70;95.50
42199;DHT22;27868;45.184;5.786;2022-11-23T11:17:55;8.70;95.40
42199;DHT22;27868;45.184;5.786;2022-11-23T11:20:44;8.60;95.10
42199;DHT22;27868;45.184;5.786;2022-11-23T11:23:30;8.70;95.30
42199;DHT22;27868;45.184;5.786;2022-11-23T11:26:21;8.70;95.40
42199;DHT22;27868;45.184;5.786;2022-11-23T11:29:06;8.80;95.40
42199;DHT22;27868;45.184;5.786;2022-11-23T11:32:16;8.70;95.30
42199;DHT22;27868;45.184;5.786;2022-11-23T11:35:17;8.80;95.30
42199;DHT22;27868;45.184;5.786;2022-11-23T11:38:14;8.80;95.20
42199;DHT22;27868;45.184;5.786;2022-11-23T11:41:08;8.90;95.20
42199;DHT22;27868;45.184;5.786;2022-11-23T11:44:06;8.90;95.10
42199;DHT22;27868;45.184;5.786;2022-11-23T11:46:58;8.90;95.10
42199;DHT22;27868;45.184;5.786;2022-11-23T11:49:45;8.90;95.10
42199;DHT22;27868;45.184;5.786;2022-11-23T11:52:35;9.00;95.10
42199;DHT22;27868;45.184;5.786;2022-11-23T11:58:53;8.90;95.20
42199;DHT22;27868;45.184;5.786;2022-11-23T12:08:12;9.00;95.20
42199;DHT22;27868;45.184;5.786;2022-11-23T12:10:59;9.00;95.30
42199;DHT22;27868;45.184;5.786;2022-11-23T12:13:45;9.10;95.40
42199;DHT22;27868;45.184;5.786;2022-11-23T12:22:42;9.20;95.40
42199;DHT22;27868;45.184;5.786;2022-11-23T12:25:34;9.20;95.40
42199;DHT22;27868;45.184;5.786;2022-11-23T12:31:48;9.20;95.70
42199;DHT22;27868;45.184;5.786;2022-11-23T12:35:13;9.20;95.80
42199;DHT22;27868;45.184;5.786;2022-11-23T13:00:03;9.30;95.50
42199;DHT22;27868;45.184;5.786;2022-11-23T13:21:38;9.40;95.70
42199;DHT22;27868;45.184;5.786;2022-11-23T13:24:27;9.40;95.60
42199;DHT22;27868;45.184;5.786;2022-11-23T13:29:57;9.40;95.60
42199;DHT22;27868;45.184;5.786;2022-11-23T13:33:01;9.40;95.70
42199;DHT22;27868;45.184;5.786;2022-11-23T13:35:50;9.40;95.80
42199;DHT22;27868;45.184;5.786;2022-11-23T13:38:40;9.40;95.60
42199;DHT22;27868;45.184;5.786;2022-11-23T13:44:25;9.50;95.60
42199;DHT22;27868;45.184;5.786;2022-11-23T13:50:16;9.40;95.60
42199;DHT22;27868;45.184;5.786;2022-11-23T13:53:03;9.50;95.70
42199;DHT22;27868;45.184;5.786;2022-11-23T14:04:51;9.40;96.10
42199;DHT22;27868;45.184;5.786;2022-11-23T14:07:40;9.50;96.20
42199;DHT22;27868;45.184;5.786;2022-11-23T14:10:29;9.50;96.30
42199;DHT22;27868;45.184;5.786;2022-11-23T14:13:19;9.50;96.30
42199;DHT22;27868;45.184;5.786;2022-11-23T14:16:10;9.50;96.30
42199;DHT22;27868;45.184;5.786;2022-11-23T14:21:52;9.50;96.40
42199;DHT22;27868;45.184;5.786;2022-11-23T14:35:31;9.50;96.60
42199;DHT22;27868;45.184;5.786;2022-11-23T14:38:39;9.50;96.60
42199;DHT22;27868;45.184;5.786;2022-11-23T14:41:31;9.50;96.70
42199;DHT22;27868;45.184;5.786;2022-11-23T14:44:23;9.60;96.80
42199;DHT22;27868;45.184;5.786;2022-11-23T14:47:10;9.60;96.90
42199;DHT22;27868;45.184;5.786;2022-11-23T14:49:55;9.60;96.90
42199;DHT22;27868;45.184;5.786;2022-11-23T14:52:40;9.50;96.90
42199;DHT22;27868;45.184;5.786;2022-11-23T14:55:29;9.60;96.90
42199;DHT22;27868;45.184;5.786;2022-11-23T14:58:15;9.60;97.00
42199;DHT22;27868;45.184;5.786;2022-11-23T15:01:00;9.60;97.00
42199;DHT22;27868;45.184;5.786;2022-11-23T15:03:57;9.60;97.00
42199;DHT22;27868;45.184;5.786;2022-11-23T15:06:46;9.60;97.10
42199;DHT22;27868;45.184;5.786;2022-11-23T15:12:46;9.60;97.10
42199;DHT22;27868;45.184;5.786;2022-11-23T15:15:31;9.60;97.20
42199;DHT22;27868;45.184;5.786;2022-11-23T15:18:34;9.60;97.10
42199;DHT22;27868;45.184;5.786;2022-11-23T15:21:25;9.60;97.10
42199;DHT22;27868;45.184;5.786;2022-11-23T15:24:23;9.70;97.20
42199;DHT22;27868;45.184;5.786;2022-11-23T15:27:17;9.60;97.10
42199;DHT22;27868;45.184;5.786;2022-11-23T15:30:29;9.60;97.10
42199;DHT22;27868;45.184;5.786;2022-11-23T15:33:14;9.70;97.20
42199;DHT22;27868;45.184;5.786;2022-11-23T15:36:02;9.70;97.30
42199;DHT22;27868;45.184;5.786;2022-11-23T15:38:48;9.60;97.30
42199;DHT22;27868;45.184;5.786;2022-11-23T15:41:35;9.60;97.40
42199;DHT22;27868;45.184;5.786;2022-11-23T15:44:25;9.60;97.50
42199;DHT22;27868;45.184;5.786;2022-11-23T15:47:13;9.70;97.50
42199;DHT22;27868;45.184;5.786;2022-11-23T15:50:08;9.70;97.50
42199;DHT22;27868;45.184;5.786;2022-11-23T15:52:53;9.70;97.60
42199;DHT22;27868;45.184;5.786;2022-11-23T15:55:37;9.60;97.60
42199;DHT22;27868;45.184;5.786;2022-11-23T15:58:22;9.70;97.70
42199;DHT22;27868;45.184;5.786;2022-11-23T16:01:12;9.70;97.90
42199;DHT22;27868;45.184;5.786;2022-11-23T16:03:58;9.70;97.60
42199;DHT22;27868;45.184;5.786;2022-11-23T16:06:47;9.70;97.60
42199;DHT22;27868;45.184;5.786;2022-11-23T16:09:36;9.60;97.60
42199;DHT22;27868;45.184;5.786;2022-11-23T16:12:25;9.70;97.50
42199;DHT22;27868;45.184;5.786;2022-11-23T16:18:18;9.60;97.30
42199;DHT22;27868;45.184;5.786;2022-11-23T16:21:04;9.60;97.30
42199;DHT22;27868;45.184;5.786;2022-11-23T16:23:55;9.60;97.20
42199;DHT22;27868;45.184;5.786;2022-11-23T16:26:40;9.60;97.40
42199;DHT22;27868;45.184;5.786;2022-11-23T16:29:36;9.60;97.50
42199;DHT22;27868;45.184;5.786;2022-11-23T16:32:24;9.50;97.50
42199;DHT22;27868;45.184;5.786;2022-11-23T16:35:17;9.50;97.50
42199;DHT22;27868;45.184;5.786;2022-11-23T16:38:02;9.50;97.60
42199;DHT22;27868;45.184;5.786;2022-11-23T16:40:47;9.50;97.70
42199;DHT22;27868;45.184;5.786;2022-11-23T16:43:31;9.60;97.90
42199;DHT22;27868;45.184;5.786;2022-11-23T16:46:16;9.50;98.00
42199;DHT22;27868;45.184;5.786;2022-11-23T16:49:00;9.60;98.20
42199;DHT22;27868;45.184;5.786;2022-11-23T16:51:46;9.60;98.20
42199;DHT22;27868;45.184;5.786;2022-11-23T16:54:34;9.50;98.20
42199;DHT22;27868;45.184;5.786;2022-11-23T16:57:38;9.50;98.30
42199;DHT22;27868;45.184;5.786;2022-11-23T17:00:23;9.40;98.40
42199;DHT22;27868;45.184;5.786;2022-11-23T17:03:15;9.40;98.20
42199;DHT22;27868;45.184;5.786;2022-11-23T17:06:00;9.40;98.20
42199;DHT22;27868;45.184;5.786;2022-11-23T17:08:45;9.50;98.20
42199;DHT22;27868;45.184;5.786;2022-11-23T17:11:30;9.50;98.30
42199;DHT22;27868;45.184;5.786;2022-11-23T17:14:15;9.50;98.30
42199;DHT22;27868;45.184;5.786;2022-11-23T17:16:59;9.50;98.10
42199;DHT22;27868;45.184;5.786;2022-11-23T17:19:46;9.50;98.10
42199;DHT22;27868;45.184;5.786;2022-11-23T17:22:32;9.60;98.20
42199;DHT22;27868;45.184;5.786;2022-11-23T17:25:17;9.60;98.10
42199;DHT22;27868;45.184;5.786;2022-11-23T17:28:03;9.60;98.20
42199;DHT22;27868;45.184;5.786;2022-11-23T17:30:49;9.60;98.10
42199;DHT22;27868;45.184;5.786;2022-11-23T17:33:34;9.60;98.20
42199;DHT22;27868;45.184;5.786;2022-11-23T17:36:19;9.60;98.30
42199;DHT22;27868;45.184;5.786;2022-11-23T17:39:03;10.20;98.20
42199;DHT22;27868;45.184;5.786;2022-11-23T17:41:48;9.60;98.40
42199;DHT22;27868;45.184;5.786;2022-11-23T17:44:33;9.80;98.20
42199;DHT22;27868;45.184;5.786;2022-11-23T17:47:25;9.60;98.20
42199;DHT22;27868;45.184;5.786;2022-11-23T17:50:14;9.60;98.40
42199;DHT22;27868;45.184;5.786;2022-11-23T17:53:00;9.50;98.60
42199;DHT22;27868;45.184;5.786;2022-11-23T17:55:45;9.50;98.60
42199;DHT22;27868;45.184;5.786;2022-11-23T17:58:30;9.40;98.70
42199;DHT22;27868;45.184;5.786;2022-11-23T18:01:16;9.30;98.80
42199;DHT22;27868;45.184;5.786;2022-11-23T18:04:01;9.30;98.90
42199;DHT22;27868;45.184;5.786;2022-11-23T18:06:48;9.30;98.90
42199;DHT22;27868;45.184;5.786;2022-11-23T18:09:32;9.40;98.90
42199;DHT22;27868;45.184;5.786;2022-11-23T18:12:17;9.40;99.00
42199;DHT22;27868;45.184;5.786;2022-11-23T18:15:02;9.40;98.90
42199;DHT22;27868;45.184;5.786;2022-11-23T18:17:47;9.40;99.00
42199;DHT22;27868;45.184;5.786;2022-11-23T18:20:32;9.40;99.00
42199;DHT22;27868;45.184;5.786;2022-11-23T18:23:16;9.40;99.10
42199;DHT22;27868;45.184;5.786;2022-11-23T18:26:04;9.40;99.00
42199;DHT22;27868;45.184;5.786;2022-11-23T18:28:49;9.40;99.10
42199;DHT22;27868;45.184;5.786;2022-11-23T18:31:33;9.40;99.10
42199;DHT22;27868;45.184;5.786;2022-11-23T18:34:18;9.40;99.20
42199;DHT22;27868;45.184;5.786;2022-11-23T18:37:02;9.40;99.30
42199;DHT22;27868;45.184;5.786;2022-11-23T18:39:47;9.40;99.20
42199;DHT22;27868;45.184;5.786;2022-11-23T18:42:31;9.40;99.30
42199;DHT22;27868;45.184;5.786;2022-11-23T18:45:16;9.50;99.10
42199;DHT22;27868;45.184;5.786;2022-11-23T18:48:00;9.40;99.00
42199;DHT22;27868;45.184;5.786;2022-11-23T18:50:45;9.50;99.00
42199;DHT22;27868;45.184;5.786;2022-11-23T18:53:31;9.50;99.30
42199;DHT22;27868;45.184;5.786;2022-11-23T18:56:16;9.50;99.00
42199;DHT22;27868;45.184;5.786;2022-11-23T18:59:01;9.50;99.10
42199;DHT22;27868;45.184;5.786;2022-11-23T19:01:46;9.60;99.10
42199;DHT22;27868;45.184;5.786;2022-11-23T19:04:30;9.60;99.10
42199;DHT22;27868;45.184;5.786;2022-11-23T19:07:15;9.50;99.00
42199;DHT22;27868;45.184;5.786;2022-11-23T19:10:00;9.50;99.10
42199;DHT22;27868;45.184;5.786;2022-11-23T19:12:44;9.60;99.40
42199;DHT22;27868;45.184;5.786;2022-11-23T19:15:29;9.60;99.10
42199;DHT22;27868;45.184;5.786;2022-11-23T19:18:14;9.60;99.00
42199;DHT22;27868;45.184;5.786;2022-11-23T19:20:59;9.60;99.00
42199;DHT22;27868;45.184;5.786;2022-11-23T19:23:51;9.60;99.00
42199;DHT22;27868;45.184;5.786;2022-11-23T19:26:40;9.60;99.00
42199;DHT22;27868;45.184;5.786;2022-11-23T19:29:27;9.60;99.00
42199;DHT22;27868;45.184;5.786;2022-11-23T19:32:12;9.50;99.00
42199;DHT22;27868;45.184;5.786;2022-11-23T19:34:57;9.60;99.00
42199;DHT22;27868;45.184;5.786;2022-11-23T19:38:00;9.60;99.00
42199;DHT22;27868;45.184;5.786;2022-11-23T19:40:53;9.60;99.00
42199;DHT22;27868;45.184;5.786;2022-11-23T19:43:38;9.60;99.10
42199;DHT22;27868;45.184;5.786;2022-11-23T19:46:23;9.60;99.10
42199;DHT22;27868;45.184;5.786;2022-11-23T19:49:08;9.60;99.10
42199;DHT22;27868;45.184;5.786;2022-11-23T19:51:53;9.60;99.10
42199;DHT22;27868;45.184;5.786;2022-11-23T19:54:39;9.60;99.10
42199;DHT22;27868;45.184;5.786;2022-11-23T19:57:24;9.60;99.10